sensor_id;sensor_type;location;lat;lon;timestamp;P1;durP1;ratioP1;P2;durP2;ratioP2
63882;SDS011;50047;50.596;30.466;2023-06-22T00:01:23;5.20;;;4.10;;
63882;SDS011;50047;50.596;30.466;2023-06-22T00:03:51;5.90;;;4.10;;
63882;SDS011;50047;50.596;30.466;2023-06-22T00:06:19;6.20;;;4.70;;
63882;SDS011;50047;50.596;30.466;2023-06-22T00:08:47;6.50;;;4.50;;
63882;SDS011;50047;50.596;30.466;2023-06-22T00:11:15;5.70;;;4.60;;
63882;SDS011;50047;50.596;30.466;2023-06-22T00:13:42;5.60;;;4.10;;
63882;SDS011;50047;50.596;30.466;2023-06-22T00:16:10;4.70;;;4.10;;
63882;SDS011;50047;50.596;30.466;2023-06-22T00:18:38;5.40;;;4.00;;
63882;SDS011;50047;50.596;30.466;2023-06-22T00:21:06;7.20;;;4.60;;
63882;SDS011;50047;50.596;30.466;2023-06-22T00:23:34;8.70;;;4.30;;
63882;SDS011;50047;50.596;30.466;2023-06-22T00:26:02;5.10;;;4.20;;
63882;SDS011;50047;50.596;30.466;2023-06-22T00:28:30;7.10;;;4.80;;
63882;SDS011;50047;50.596;30.466;2023-06-22T00:30:57;7.10;;;4.30;;
63882;SDS011;50047;50.596;30.466;2023-06-22T00:33:25;5.80;;;4.10;;
63882;SDS011;50047;50.596;30.466;2023-06-22T00:35:54;8.80;;;5.00;;
63882;SDS011;50047;50.596;30.466;2023-06-22T00:38:21;8.00;;;5.40;;
63882;SDS011;50047;50.596;30.466;2023-06-22T00:40:49;7.00;;;4.30;;
63882;SDS011;50047;50.596;30.466;2023-06-22T00:43:17;6.00;;;5.00;;
63882;SDS011;50047;50.596;30.466;2023-06-22T00:45:44;7.70;;;4.90;;
63882;SDS011;50047;50.596;30.466;2023-06-22T00:48:12;9.70;;;5.40;;
63882;SDS011;50047;50.596;30.466;2023-06-22T00:50:41;9.00;;;5.40;;
63882;SDS011;50047;50.596;30.466;2023-06-22T00:53:09;7.40;;;5.20;;
63882;SDS011;50047;50.596;30.466;2023-06-22T00:55:41;8.70;;;5.20;;
63882;SDS011;50047;50.596;30.466;2023-06-22T00:58:19;12.50;;;5.70;;
63882;SDS011;50047;50.596;30.466;2023-06-22T01:00:49;6.80;;;5.00;;
63882;SDS011;50047;50.596;30.466;2023-06-22T01:03:17;6.10;;;4.50;;
63882;SDS011;50047;50.596;30.466;2023-06-22T01:05:46;7.00;;;4.80;;
63882;SDS011;50047;50.596;30.466;2023-06-22T01:08:21;6.30;;;5.00;;
63882;SDS011;50047;50.596;30.466;2023-06-22T01:16:50;7.10;;;4.50;;
63882;SDS011;50047;50.596;30.466;2023-06-22T01:22:16;7.40;;;4.50;;
63882;SDS011;50047;50.596;30.466;2023-06-22T01:25:02;6.80;;;4.60;;
63882;SDS011;50047;50.596;30.466;2023-06-22T01:30:28;6.30;;;4.40;;
63882;SDS011;50047;50.596;30.466;2023-06-22T01:32:58;7.50;;;4.40;;
63882;SDS011;50047;50.596;30.466;2023-06-22T01:35:26;5.50;;;4.20;;
63882;SDS011;50047;50.596;30.466;2023-06-22T01:37:54;6.70;;;4.40;;
63882;SDS011;50047;50.596;30.466;2023-06-22T01:40:23;6.60;;;4.50;;
63882;SDS011;50047;50.596;30.466;2023-06-22T01:42:57;5.80;;;4.10;;
63882;SDS011;50047;50.596;30.466;2023-06-22T01:45:25;6.00;;;4.40;;
63882;SDS011;50047;50.596;30.466;2023-06-22T01:47:53;5.50;;;4.20;;
63882;SDS011;50047;50.596;30.466;2023-06-22T01:50:22;7.00;;;4.50;;
63882;SDS011;50047;50.596;30.466;2023-06-22T01:52:49;4.90;;;4.00;;
63882;SDS011;50047;50.596;30.466;2023-06-22T01:55:17;6.30;;;3.80;;
63882;SDS011;50047;50.596;30.466;2023-06-22T01:57:48;7.00;;;4.60;;
63882;SDS011;50047;50.596;30.466;2023-06-22T02:00:18;5.50;;;3.80;;
63882;SDS011;50047;50.596;30.466;2023-06-22T02:02:58;7.10;;;4.40;;
63882;SDS011;50047;50.596;30.466;2023-06-22T02:05:28;6.40;;;4.30;;
63882;SDS011;50047;50.596;30.466;2023-06-22T02:08:21;6.20;;;4.70;;
63882;SDS011;50047;50.596;30.466;2023-06-22T02:13:23;7.30;;;4.00;;
63882;SDS011;50047;50.596;30.466;2023-06-22T02:15:52;5.80;;;4.10;;
63882;SDS011;50047;50.596;30.466;2023-06-22T02:18:20;5.70;;;4.10;;
63882;SDS011;50047;50.596;30.466;2023-06-22T02:20:48;7.30;;;5.30;;
63882;SDS011;50047;50.596;30.466;2023-06-22T02:23:15;11.60;;;6.20;;
63882;SDS011;50047;50.596;30.466;2023-06-22T02:25:43;10.60;;;6.10;;
63882;SDS011;50047;50.596;30.466;2023-06-22T02:28:11;13.60;;;6.50;;
63882;SDS011;50047;50.596;30.466;2023-06-22T02:30:39;21.10;;;9.30;;
63882;SDS011;50047;50.596;30.466;2023-06-22T02:33:07;17.00;;;7.90;;
63882;SDS011;50047;50.596;30.466;2023-06-22T02:35:34;13.30;;;8.00;;
63882;SDS011;50047;50.596;30.466;2023-06-22T02:38:03;13.60;;;9.60;;
63882;SDS011;50047;50.596;30.466;2023-06-22T02:40:31;7.90;;;6.60;;
63882;SDS011;50047;50.596;30.466;2023-06-22T02:42:59;6.30;;;5.70;;
63882;SDS011;50047;50.596;30.466;2023-06-22T02:45:30;7.50;;;5.90;;
63882;SDS011;50047;50.596;30.466;2023-06-22T02:47:58;7.00;;;5.80;;
63882;SDS011;50047;50.596;30.466;2023-06-22T02:50:26;7.70;;;5.70;;
63882;SDS011;50047;50.596;30.466;2023-06-22T02:52:54;9.70;;;5.80;;
63882;SDS011;50047;50.596;30.466;2023-06-22T02:55:22;7.70;;;5.80;;
63882;SDS011;50047;50.596;30.466;2023-06-22T02:57:54;7.30;;;5.80;;
63882;SDS011;50047;50.596;30.466;2023-06-22T03:00:22;8.10;;;5.90;;
63882;SDS011;50047;50.596;30.466;2023-06-22T03:02:49;7.40;;;5.70;;
63882;SDS011;50047;50.596;30.466;2023-06-22T03:05:18;8.30;;;5.90;;
63882;SDS011;50047;50.596;30.466;2023-06-22T03:07:46;10.80;;;5.70;;
63882;SDS011;50047;50.596;30.466;2023-06-22T03:10:15;7.10;;;6.10;;
63882;SDS011;50047;50.596;30.466;2023-06-22T03:12:43;7.30;;;6.20;;
63882;SDS011;50047;50.596;30.466;2023-06-22T03:15:11;7.40;;;5.90;;
63882;SDS011;50047;50.596;30.466;2023-06-22T03:17:40;7.70;;;6.00;;
63882;SDS011;50047;50.596;30.466;2023-06-22T03:20:09;8.50;;;6.70;;
63882;SDS011;50047;50.596;30.466;2023-06-22T03:22:38;8.40;;;6.30;;
63882;SDS011;50047;50.596;30.466;2023-06-22T03:25:08;6.50;;;5.80;;
63882;SDS011;50047;50.596;30.466;2023-06-22T03:27:44;6.80;;;6.10;;
63882;SDS011;50047;50.596;30.466;2023-06-22T03:30:12;6.00;;;5.40;;
63882;SDS011;50047;50.596;30.466;2023-06-22T03:32:40;8.10;;;6.10;;
63882;SDS011;50047;50.596;30.466;2023-06-22T03:35:08;12.80;;;6.60;;
63882;SDS011;50047;50.596;30.466;2023-06-22T03:37:36;9.30;;;6.40;;
63882;SDS011;50047;50.596;30.466;2023-06-22T03:40:05;9.60;;;6.70;;
63882;SDS011;50047;50.596;30.466;2023-06-22T03:42:34;7.30;;;6.60;;
63882;SDS011;50047;50.596;30.466;2023-06-22T03:45:03;7.90;;;7.10;;
63882;SDS011;50047;50.596;30.466;2023-06-22T03:47:32;9.60;;;6.60;;
63882;SDS011;50047;50.596;30.466;2023-06-22T03:50:00;12.50;;;7.10;;
63882;SDS011;50047;50.596;30.466;2023-06-22T03:52:31;7.60;;;6.80;;
63882;SDS011;50047;50.596;30.466;2023-06-22T03:54:58;8.80;;;6.90;;
63882;SDS011;50047;50.596;30.466;2023-06-22T03:57:26;8.70;;;7.10;;
63882;SDS011;50047;50.596;30.466;2023-06-22T03:59:56;10.30;;;6.80;;
63882;SDS011;50047;50.596;30.466;2023-06-22T04:02:25;10.50;;;7.40;;
63882;SDS011;50047;50.596;30.466;2023-06-22T04:04:53;9.40;;;7.00;;
63882;SDS011;50047;50.596;30.466;2023-06-22T04:07:21;10.10;;;7.60;;
63882;SDS011;50047;50.596;30.466;2023-06-22T04:09:48;8.80;;;7.20;;
63882;SDS011;50047;50.596;30.466;2023-06-22T04:12:16;14.50;;;7.30;;
63882;SDS011;50047;50.596;30.466;2023-06-22T04:14:45;9.30;;;7.20;;
63882;SDS011;50047;50.596;30.466;2023-06-22T04:17:13;9.70;;;7.50;;
63882;SDS011;50047;50.596;30.466;2023-06-22T04:19:45;8.60;;;7.40;;
63882;SDS011;50047;50.596;30.466;2023-06-22T04:22:12;11.50;;;7.30;;
63882;SDS011;50047;50.596;30.466;2023-06-22T04:24:40;12.30;;;7.80;;
63882;SDS011;50047;50.596;30.466;2023-06-22T04:27:08;10.60;;;6.90;;
63882;SDS011;50047;50.596;30.466;2023-06-22T04:29:37;9.50;;;6.50;;
63882;SDS011;50047;50.596;30.466;2023-06-22T04:32:05;9.50;;;7.00;;
63882;SDS011;50047;50.596;30.466;2023-06-22T04:34:33;11.20;;;6.60;;
63882;SDS011;50047;50.596;30.466;2023-06-22T04:37:01;10.60;;;7.40;;
63882;SDS011;50047;50.596;30.466;2023-06-22T04:39:29;9.60;;;7.40;;
63882;SDS011;50047;50.596;30.466;2023-06-22T04:41:58;8.80;;;7.60;;
63882;SDS011;50047;50.596;30.466;2023-06-22T04:44:30;16.30;;;7.60;;
63882;SDS011;50047;50.596;30.466;2023-06-22T04:46:58;10.40;;;6.90;;
63882;SDS011;50047;50.596;30.466;2023-06-22T04:49:35;8.80;;;6.20;;
63882;SDS011;50047;50.596;30.466;2023-06-22T04:52:05;15.10;;;7.20;;
63882;SDS011;50047;50.596;30.466;2023-06-22T04:54:35;7.80;;;6.30;;
63882;SDS011;50047;50.596;30.466;2023-06-22T04:57:04;8.50;;;7.00;;
63882;SDS011;50047;50.596;30.466;2023-06-22T04:59:37;8.20;;;6.60;;
63882;SDS011;50047;50.596;30.466;2023-06-22T05:02:09;9.10;;;6.20;;
63882;SDS011;50047;50.596;30.466;2023-06-22T05:04:37;12.90;;;6.30;;
63882;SDS011;50047;50.596;30.466;2023-06-22T05:07:07;9.00;;;7.10;;
63882;SDS011;50047;50.596;30.466;2023-06-22T05:09:34;10.00;;;6.40;;
63882;SDS011;50047;50.596;30.466;2023-06-22T05:12:03;8.70;;;6.10;;
63882;SDS011;50047;50.596;30.466;2023-06-22T05:14:35;9.90;;;6.20;;
63882;SDS011;50047;50.596;30.466;2023-06-22T05:17:02;7.70;;;6.10;;
63882;SDS011;50047;50.596;30.466;2023-06-22T05:19:31;7.10;;;6.40;;
63882;SDS011;50047;50.596;30.466;2023-06-22T05:22:01;6.70;;;6.00;;
63882;SDS011;50047;50.596;30.466;2023-06-22T05:24:30;8.90;;;6.30;;
63882;SDS011;50047;50.596;30.466;2023-06-22T05:26:58;7.60;;;6.40;;
63882;SDS011;50047;50.596;30.466;2023-06-22T05:29:25;7.40;;;6.30;;
63882;SDS011;50047;50.596;30.466;2023-06-22T05:31:54;10.60;;;6.10;;
63882;SDS011;50047;50.596;30.466;2023-06-22T05:34:21;9.10;;;6.00;;
63882;SDS011;50047;50.596;30.466;2023-06-22T05:36:50;9.20;;;5.90;;
63882;SDS011;50047;50.596;30.466;2023-06-22T05:39:17;9.10;;;6.30;;
63882;SDS011;50047;50.596;30.466;2023-06-22T05:41:45;9.00;;;6.20;;
63882;SDS011;50047;50.596;30.466;2023-06-22T05:44:13;6.80;;;5.70;;
63882;SDS011;50047;50.596;30.466;2023-06-22T05:46:42;6.80;;;6.00;;
63882;SDS011;50047;50.596;30.466;2023-06-22T05:49:15;7.70;;;5.60;;
63882;SDS011;50047;50.596;30.466;2023-06-22T05:51:43;9.10;;;5.40;;
63882;SDS011;50047;50.596;30.466;2023-06-22T05:54:11;5.90;;;5.30;;
63882;SDS011;50047;50.596;30.466;2023-06-22T05:56:41;5.70;;;5.10;;
63882;SDS011;50047;50.596;30.466;2023-06-22T05:59:08;7.80;;;5.30;;
63882;SDS011;50047;50.596;30.466;2023-06-22T06:01:36;6.90;;;4.80;;
63882;SDS011;50047;50.596;30.466;2023-06-22T06:04:04;6.30;;;5.30;;
63882;SDS011;50047;50.596;30.466;2023-06-22T06:06:32;6.30;;;4.80;;
63882;SDS011;50047;50.596;30.466;2023-06-22T06:09:05;6.90;;;5.00;;
63882;SDS011;50047;50.596;30.466;2023-06-22T06:11:33;7.40;;;6.20;;
63882;SDS011;50047;50.596;30.466;2023-06-22T06:14:01;6.10;;;4.80;;
63882;SDS011;50047;50.596;30.466;2023-06-22T06:16:29;5.50;;;5.00;;
63882;SDS011;50047;50.596;30.466;2023-06-22T06:18:59;5.00;;;4.50;;
63882;SDS011;50047;50.596;30.466;2023-06-22T06:21:26;5.10;;;4.40;;
63882;SDS011;50047;50.596;30.466;2023-06-22T06:23:57;5.90;;;4.70;;
63882;SDS011;50047;50.596;30.466;2023-06-22T06:26:26;5.60;;;4.90;;
63882;SDS011;50047;50.596;30.466;2023-06-22T06:28:57;5.50;;;4.80;;
63882;SDS011;50047;50.596;30.466;2023-06-22T06:31:24;9.00;;;4.90;;
63882;SDS011;50047;50.596;30.466;2023-06-22T06:33:55;6.50;;;5.40;;
63882;SDS011;50047;50.596;30.466;2023-06-22T06:36:22;5.90;;;5.30;;
63882;SDS011;50047;50.596;30.466;2023-06-22T06:38:50;6.20;;;5.20;;
63882;SDS011;50047;50.596;30.466;2023-06-22T06:41:18;6.40;;;5.40;;
63882;SDS011;50047;50.596;30.466;2023-06-22T06:43:46;6.30;;;5.20;;
63882;SDS011;50047;50.596;30.466;2023-06-22T06:46:15;7.10;;;5.20;;
63882;SDS011;50047;50.596;30.466;2023-06-22T06:48:43;7.40;;;5.50;;
63882;SDS011;50047;50.596;30.466;2023-06-22T06:51:10;8.60;;;5.90;;
63882;SDS011;50047;50.596;30.466;2023-06-22T06:53:38;6.20;;;5.60;;
63882;SDS011;50047;50.596;30.466;2023-06-22T06:56:06;9.50;;;5.80;;
63882;SDS011;50047;50.596;30.466;2023-06-22T06:58:34;7.10;;;5.10;;
63882;SDS011;50047;50.596;30.466;2023-06-22T07:01:02;6.70;;;5.20;;
63882;SDS011;50047;50.596;30.466;2023-06-22T07:03:30;7.40;;;4.90;;
63882;SDS011;50047;50.596;30.466;2023-06-22T07:05:59;7.90;;;5.40;;
63882;SDS011;50047;50.596;30.466;2023-06-22T07:08:27;7.20;;;5.60;;
63882;SDS011;50047;50.596;30.466;2023-06-22T07:10:56;6.00;;;4.40;;
63882;SDS011;50047;50.596;30.466;2023-06-22T07:13:24;6.40;;;4.60;;
63882;SDS011;50047;50.596;30.466;2023-06-22T07:15:52;6.70;;;5.20;;
63882;SDS011;50047;50.596;30.466;2023-06-22T07:18:19;7.10;;;4.70;;
63882;SDS011;50047;50.596;30.466;2023-06-22T07:20:47;6.10;;;5.20;;
63882;SDS011;50047;50.596;30.466;2023-06-22T07:23:15;8.80;;;4.80;;
63882;SDS011;50047;50.596;30.466;2023-06-22T07:25:44;5.60;;;4.30;;
63882;SDS011;50047;50.596;30.466;2023-06-22T07:28:11;8.50;;;4.40;;
63882;SDS011;50047;50.596;30.466;2023-06-22T07:30:39;7.00;;;4.40;;
63882;SDS011;50047;50.596;30.466;2023-06-22T07:33:07;5.00;;;4.50;;
63882;SDS011;50047;50.596;30.466;2023-06-22T07:35:36;4.90;;;4.40;;
63882;SDS011;50047;50.596;30.466;2023-06-22T07:38:04;5.10;;;3.90;;
63882;SDS011;50047;50.596;30.466;2023-06-22T07:40:33;4.90;;;4.00;;
63882;SDS011;50047;50.596;30.466;2023-06-22T07:43:02;6.90;;;4.30;;
63882;SDS011;50047;50.596;30.466;2023-06-22T07:45:30;9.40;;;4.70;;
63882;SDS011;50047;50.596;30.466;2023-06-22T07:48:01;12.60;;;4.10;;
63882;SDS011;50047;50.596;30.466;2023-06-22T07:50:29;5.00;;;4.00;;
63882;SDS011;50047;50.596;30.466;2023-06-22T07:52:57;4.80;;;4.30;;
63882;SDS011;50047;50.596;30.466;2023-06-22T07:55:25;6.00;;;4.40;;
63882;SDS011;50047;50.596;30.466;2023-06-22T07:57:53;9.40;;;4.70;;
63882;SDS011;50047;50.596;30.466;2023-06-22T08:00:21;9.40;;;4.40;;
63882;SDS011;50047;50.596;30.466;2023-06-22T08:02:49;6.60;;;4.70;;
63882;SDS011;50047;50.596;30.466;2023-06-22T08:05:17;5.20;;;4.50;;
63882;SDS011;50047;50.596;30.466;2023-06-22T08:07:49;5.70;;;4.40;;
63882;SDS011;50047;50.596;30.466;2023-06-22T08:10:17;6.20;;;4.80;;
63882;SDS011;50047;50.596;30.466;2023-06-22T08:12:46;7.00;;;5.60;;
63882;SDS011;50047;50.596;30.466;2023-06-22T08:15:13;7.40;;;5.00;;
63882;SDS011;50047;50.596;30.466;2023-06-22T08:17:41;7.20;;;4.50;;
63882;SDS011;50047;50.596;30.466;2023-06-22T08:20:09;6.80;;;4.10;;
63882;SDS011;50047;50.596;30.466;2023-06-22T08:22:41;6.40;;;4.20;;
63882;SDS011;50047;50.596;30.466;2023-06-22T08:25:10;6.40;;;4.20;;
63882;SDS011;50047;50.596;30.466;2023-06-22T08:27:38;7.90;;;4.30;;
63882;SDS011;50047;50.596;30.466;2023-06-22T08:30:07;6.50;;;4.80;;
63882;SDS011;50047;50.596;30.466;2023-06-22T08:32:38;5.40;;;4.50;;
63882;SDS011;50047;50.596;30.466;2023-06-22T08:35:06;8.00;;;4.60;;
63882;SDS011;50047;50.596;30.466;2023-06-22T08:37:35;7.20;;;4.50;;
63882;SDS011;50047;50.596;30.466;2023-06-22T08:40:07;4.80;;;4.30;;
63882;SDS011;50047;50.596;30.466;2023-06-22T08:42:39;7.20;;;5.20;;
63882;SDS011;50047;50.596;30.466;2023-06-22T08:47:37;6.30;;;4.80;;
63882;SDS011;50047;50.596;30.466;2023-06-22T08:50:05;7.10;;;4.40;;
63882;SDS011;50047;50.596;30.466;2023-06-22T08:52:35;7.20;;;4.50;;
63882;SDS011;50047;50.596;30.466;2023-06-22T08:55:04;6.80;;;4.40;;
63882;SDS011;50047;50.596;30.466;2023-06-22T08:57:34;13.30;;;4.40;;
63882;SDS011;50047;50.596;30.466;2023-06-22T09:00:01;6.70;;;5.20;;
63882;SDS011;50047;50.596;30.466;2023-06-22T09:02:32;5.90;;;4.50;;
63882;SDS011;50047;50.596;30.466;2023-06-22T09:05:02;5.10;;;4.40;;
63882;SDS011;50047;50.596;30.466;2023-06-22T09:07:31;5.30;;;4.40;;
63882;SDS011;50047;50.596;30.466;2023-06-22T09:09:59;5.30;;;4.50;;
63882;SDS011;50047;50.596;30.466;2023-06-22T09:12:31;9.70;;;6.00;;
63882;SDS011;50047;50.596;30.466;2023-06-22T09:15:00;6.50;;;5.60;;
63882;SDS011;50047;50.596;30.466;2023-06-22T09:17:28;5.80;;;5.00;;
63882;SDS011;50047;50.596;30.466;2023-06-22T09:19:56;7.50;;;5.10;;
63882;SDS011;50047;50.596;30.466;2023-06-22T09:22:24;8.60;;;5.50;;
63882;SDS011;50047;50.596;30.466;2023-06-22T09:24:56;8.60;;;5.30;;
63882;SDS011;50047;50.596;30.466;2023-06-22T09:27:26;8.30;;;5.80;;
63882;SDS011;50047;50.596;30.466;2023-06-22T09:29:54;6.60;;;5.30;;
63882;SDS011;50047;50.596;30.466;2023-06-22T09:32:22;7.80;;;5.30;;
63882;SDS011;50047;50.596;30.466;2023-06-22T09:34:50;10.60;;;6.50;;
63882;SDS011;50047;50.596;30.466;2023-06-22T09:37:17;9.10;;;5.70;;
63882;SDS011;50047;50.596;30.466;2023-06-22T09:39:45;8.00;;;5.50;;
63882;SDS011;50047;50.596;30.466;2023-06-22T09:42:13;16.40;;;5.40;;
63882;SDS011;50047;50.596;30.466;2023-06-22T09:44:40;8.20;;;5.20;;
63882;SDS011;50047;50.596;30.466;2023-06-22T09:47:08;6.20;;;5.60;;
63882;SDS011;50047;50.596;30.466;2023-06-22T09:49:36;8.10;;;5.50;;
63882;SDS011;50047;50.596;30.466;2023-06-22T09:52:15;9.60;;;5.10;;
63882;SDS011;50047;50.596;30.466;2023-06-22T09:54:43;8.00;;;5.60;;
63882;SDS011;50047;50.596;30.466;2023-06-22T09:57:11;8.30;;;5.50;;
63882;SDS011;50047;50.596;30.466;2023-06-22T09:59:38;7.60;;;5.10;;
63882;SDS011;50047;50.596;30.466;2023-06-22T10:02:09;7.70;;;5.00;;
63882;SDS011;50047;50.596;30.466;2023-06-22T10:04:37;5.50;;;4.70;;
63882;SDS011;50047;50.596;30.466;2023-06-22T10:07:07;6.80;;;4.50;;
63882;SDS011;50047;50.596;30.466;2023-06-22T10:09:35;6.00;;;5.00;;
63882;SDS011;50047;50.596;30.466;2023-06-22T10:12:03;6.90;;;5.40;;
63882;SDS011;50047;50.596;30.466;2023-06-22T10:14:31;9.20;;;5.40;;
63882;SDS011;50047;50.596;30.466;2023-06-22T10:16:59;7.90;;;5.50;;
63882;SDS011;50047;50.596;30.466;2023-06-22T10:19:27;9.30;;;5.20;;
63882;SDS011;50047;50.596;30.466;2023-06-22T10:21:54;8.00;;;5.20;;
63882;SDS011;50047;50.596;30.466;2023-06-22T10:24:22;7.30;;;4.60;;
63882;SDS011;50047;50.596;30.466;2023-06-22T10:26:50;6.80;;;5.20;;
63882;SDS011;50047;50.596;30.466;2023-06-22T10:29:18;7.00;;;4.90;;
63882;SDS011;50047;50.596;30.466;2023-06-22T10:31:46;9.20;;;4.90;;
63882;SDS011;50047;50.596;30.466;2023-06-22T10:34:13;7.00;;;5.10;;
63882;SDS011;50047;50.596;30.466;2023-06-22T10:36:41;8.40;;;5.90;;
63882;SDS011;50047;50.596;30.466;2023-06-22T10:39:09;7.90;;;5.90;;
63882;SDS011;50047;50.596;30.466;2023-06-22T10:41:37;11.70;;;10.50;;
63882;SDS011;50047;50.596;30.466;2023-06-22T10:44:04;8.90;;;7.30;;
63882;SDS011;50047;50.596;30.466;2023-06-22T10:46:32;12.60;;;8.70;;
63882;SDS011;50047;50.596;30.466;2023-06-22T10:49:00;9.60;;;6.60;;
63882;SDS011;50047;50.596;30.466;2023-06-22T10:51:27;7.70;;;6.10;;
63882;SDS011;50047;50.596;30.466;2023-06-22T10:53:55;8.70;;;6.60;;
63882;SDS011;50047;50.596;30.466;2023-06-22T10:56:23;8.20;;;6.30;;
63882;SDS011;50047;50.596;30.466;2023-06-22T10:58:51;7.00;;;5.80;;
63882;SDS011;50047;50.596;30.466;2023-06-22T11:01:20;6.70;;;5.40;;
63882;SDS011;50047;50.596;30.466;2023-06-22T11:03:53;13.40;;;5.20;;
63882;SDS011;50047;50.596;30.466;2023-06-22T11:06:21;11.70;;;5.20;;
63882;SDS011;50047;50.596;30.466;2023-06-22T11:08:48;7.90;;;6.10;;
63882;SDS011;50047;50.596;30.466;2023-06-22T11:11:32;8.20;;;6.20;;
63882;SDS011;50047;50.596;30.466;2023-06-22T11:14:00;7.70;;;5.80;;
63882;SDS011;50047;50.596;30.466;2023-06-22T11:16:28;8.10;;;5.80;;
63882;SDS011;50047;50.596;30.466;2023-06-22T11:18:56;8.60;;;7.40;;
63882;SDS011;50047;50.596;30.466;2023-06-22T11:21:23;13.10;;;7.20;;
63882;SDS011;50047;50.596;30.466;2023-06-22T11:23:51;13.70;;;6.10;;
63882;SDS011;50047;50.596;30.466;2023-06-22T11:26:19;7.10;;;5.90;;
63882;SDS011;50047;50.596;30.466;2023-06-22T11:28:48;7.00;;;5.90;;
63882;SDS011;50047;50.596;30.466;2023-06-22T11:31:16;9.60;;;5.70;;
63882;SDS011;50047;50.596;30.466;2023-06-22T11:33:52;7.10;;;5.20;;
63882;SDS011;50047;50.596;30.466;2023-06-22T11:36:20;6.20;;;5.20;;
63882;SDS011;50047;50.596;30.466;2023-06-22T11:38:48;6.00;;;5.20;;
63882;SDS011;50047;50.596;30.466;2023-06-22T11:41:16;7.30;;;5.30;;
63882;SDS011;50047;50.596;30.466;2023-06-22T11:43:44;6.20;;;5.00;;
63882;SDS011;50047;50.596;30.466;2023-06-22T11:46:12;7.50;;;5.40;;
63882;SDS011;50047;50.596;30.466;2023-06-22T11:48:40;6.60;;;5.20;;
63882;SDS011;50047;50.596;30.466;2023-06-22T11:51:08;5.90;;;4.80;;
63882;SDS011;50047;50.596;30.466;2023-06-22T11:53:36;6.30;;;5.00;;
63882;SDS011;50047;50.596;30.466;2023-06-22T11:56:04;7.10;;;5.10;;
63882;SDS011;50047;50.596;30.466;2023-06-22T11:58:34;8.20;;;5.30;;
63882;SDS011;50047;50.596;30.466;2023-06-22T12:01:01;7.70;;;4.80;;
63882;SDS011;50047;50.596;30.466;2023-06-22T12:03:29;5.70;;;4.80;;
63882;SDS011;50047;50.596;30.466;2023-06-22T12:05:57;5.00;;;4.50;;
63882;SDS011;50047;50.596;30.466;2023-06-22T12:08:28;7.20;;;4.60;;
63882;SDS011;50047;50.596;30.466;2023-06-22T12:11:05;7.60;;;4.50;;
63882;SDS011;50047;50.596;30.466;2023-06-22T12:13:33;7.50;;;4.90;;
63882;SDS011;50047;50.596;30.466;2023-06-22T12:16:01;8.30;;;4.20;;
63882;SDS011;50047;50.596;30.466;2023-06-22T12:18:29;7.50;;;4.90;;
63882;SDS011;50047;50.596;30.466;2023-06-22T12:20:56;7.40;;;4.70;;
63882;SDS011;50047;50.596;30.466;2023-06-22T12:23:24;6.40;;;4.70;;
63882;SDS011;50047;50.596;30.466;2023-06-22T12:25:52;10.00;;;5.10;;
63882;SDS011;50047;50.596;30.466;2023-06-22T12:28:19;6.70;;;4.60;;
63882;SDS011;50047;50.596;30.466;2023-06-22T12:30:47;8.40;;;4.90;;
63882;SDS011;50047;50.596;30.466;2023-06-22T12:33:15;7.10;;;4.80;;
63882;SDS011;50047;50.596;30.466;2023-06-22T12:35:43;6.90;;;4.60;;
63882;SDS011;50047;50.596;30.466;2023-06-22T12:38:12;7.60;;;4.60;;
63882;SDS011;50047;50.596;30.466;2023-06-22T12:40:40;6.30;;;4.50;;
63882;SDS011;50047;50.596;30.466;2023-06-22T12:43:07;6.30;;;5.00;;
63882;SDS011;50047;50.596;30.466;2023-06-22T12:45:35;6.30;;;4.80;;
63882;SDS011;50047;50.596;30.466;2023-06-22T12:48:03;8.00;;;6.60;;
63882;SDS011;50047;50.596;30.466;2023-06-22T12:50:31;9.30;;;7.00;;
63882;SDS011;50047;50.596;30.466;2023-06-22T12:52:59;6.40;;;5.10;;
63882;SDS011;50047;50.596;30.466;2023-06-22T12:55:29;7.20;;;4.80;;
63882;SDS011;50047;50.596;30.466;2023-06-22T12:57:57;7.10;;;5.20;;
63882;SDS011;50047;50.596;30.466;2023-06-22T13:00:25;5.60;;;4.30;;
63882;SDS011;50047;50.596;30.466;2023-06-22T13:02:52;7.00;;;4.50;;
63882;SDS011;50047;50.596;30.466;2023-06-22T13:07:04;7.90;;;4.90;;
63882;SDS011;50047;50.596;30.466;2023-06-22T13:09:47;8.50;;;5.00;;
63882;SDS011;50047;50.596;30.466;2023-06-22T13:12:22;7.80;;;4.70;;
63882;SDS011;50047;50.596;30.466;2023-06-22T13:14:50;7.20;;;5.20;;
63882;SDS011;50047;50.596;30.466;2023-06-22T13:17:17;7.10;;;5.90;;
63882;SDS011;50047;50.596;30.466;2023-06-22T13:19:45;8.40;;;4.90;;
63882;SDS011;50047;50.596;30.466;2023-06-22T13:24:58;4.60;;;3.90;;
63882;SDS011;50047;50.596;30.466;2023-06-22T13:27:27;5.10;;;3.80;;
63882;SDS011;50047;50.596;30.466;2023-06-22T13:29:54;6.40;;;4.30;;
63882;SDS011;50047;50.596;30.466;2023-06-22T13:32:22;5.20;;;4.40;;
63882;SDS011;50047;50.596;30.466;2023-06-22T13:34:51;4.30;;;3.60;;
63882;SDS011;50047;50.596;30.466;2023-06-22T13:37:19;6.20;;;4.10;;
63882;SDS011;50047;50.596;30.466;2023-06-22T13:39:47;5.20;;;4.20;;
63882;SDS011;50047;50.596;30.466;2023-06-22T13:42:14;5.10;;;3.90;;
63882;SDS011;50047;50.596;30.466;2023-06-22T13:44:42;5.40;;;3.80;;
63882;SDS011;50047;50.596;30.466;2023-06-22T13:47:10;4.70;;;3.80;;
63882;SDS011;50047;50.596;30.466;2023-06-22T13:49:38;4.70;;;3.80;;
63882;SDS011;50047;50.596;30.466;2023-06-22T13:52:05;6.00;;;4.00;;
63882;SDS011;50047;50.596;30.466;2023-06-22T13:54:42;5.30;;;4.30;;
63882;SDS011;50047;50.596;30.466;2023-06-22T13:57:10;8.30;;;5.20;;
63882;SDS011;50047;50.596;30.466;2023-06-22T13:59:38;7.70;;;4.30;;
63882;SDS011;50047;50.596;30.466;2023-06-22T14:02:05;5.40;;;4.40;;
63882;SDS011;50047;50.596;30.466;2023-06-22T14:04:34;6.20;;;4.30;;
63882;SDS011;50047;50.596;30.466;2023-06-22T14:07:01;7.10;;;4.30;;
63882;SDS011;50047;50.596;30.466;2023-06-22T14:09:29;7.40;;;4.10;;
63882;SDS011;50047;50.596;30.466;2023-06-22T14:11:57;6.70;;;4.30;;
63882;SDS011;50047;50.596;30.466;2023-06-22T14:14:25;4.60;;;4.00;;
63882;SDS011;50047;50.596;30.466;2023-06-22T14:16:54;10.20;;;4.10;;
63882;SDS011;50047;50.596;30.466;2023-06-22T14:19:22;7.70;;;4.00;;
63882;SDS011;50047;50.596;30.466;2023-06-22T14:21:49;4.40;;;3.80;;
63882;SDS011;50047;50.596;30.466;2023-06-22T14:24:17;6.70;;;4.40;;
63882;SDS011;50047;50.596;30.466;2023-06-22T14:26:45;5.30;;;3.80;;
63882;SDS011;50047;50.596;30.466;2023-06-22T14:29:12;8.70;;;4.40;;
63882;SDS011;50047;50.596;30.466;2023-06-22T14:31:40;6.20;;;4.00;;
63882;SDS011;50047;50.596;30.466;2023-06-22T14:34:08;7.90;;;4.10;;
63882;SDS011;50047;50.596;30.466;2023-06-22T14:36:35;7.10;;;3.90;;
63882;SDS011;50047;50.596;30.466;2023-06-22T14:39:03;4.20;;;3.80;;
63882;SDS011;50047;50.596;30.466;2023-06-22T14:41:31;4.40;;;3.40;;
63882;SDS011;50047;50.596;30.466;2023-06-22T14:43:59;10.80;;;4.20;;
63882;SDS011;50047;50.596;30.466;2023-06-22T14:46:26;6.50;;;4.50;;
63882;SDS011;50047;50.596;30.466;2023-06-22T14:48:54;6.30;;;4.20;;
63882;SDS011;50047;50.596;30.466;2023-06-22T14:51:22;4.90;;;4.00;;
63882;SDS011;50047;50.596;30.466;2023-06-22T14:53:50;8.10;;;4.50;;
63882;SDS011;50047;50.596;30.466;2023-06-22T14:56:17;6.00;;;4.40;;
63882;SDS011;50047;50.596;30.466;2023-06-22T14:58:45;6.90;;;5.20;;
63882;SDS011;50047;50.596;30.466;2023-06-22T15:01:16;6.70;;;5.30;;
63882;SDS011;50047;50.596;30.466;2023-06-22T15:03:44;8.90;;;5.30;;